Time;durP1;ratioP1;P1;durP2;ratioP2;P2;SDS_P1;SDS_P2;PMS_P1;PMS_P2;Temp;Humidity;BMP_temperature;BMP_pressure;BME280_temperature;BME280_humidity;BME280_pressure;Samples;Min_cycle;Max_cycle;Signal;HPM_P1;HPM_P2
2021/04/05 00:00:08;;;;;;;;;;;;;;;21.75;28.75;97536.38;5083699;28;915;-74
2021/04/05 00:02:33;;;;;;;;;;;;;;;21.70;28.81;97548.28;5083492;28;1052;-74
2021/04/05 00:04:59;;;;;;;;;;;;;;;21.62;28.85;97544.13;5083892;28;594;-74
2021/04/05 00:07:24;;;;;;;;;;;;;;;21.71;28.75;97521.56;5083578;28;712;-74
2021/04/05 00:09:50;;;;;;;;;;;;;;;21.59;28.85;97519.53;5083393;28;629;-74
2021/04/05 00:12:15;;;;;;;;;;;;;;;21.65;28.79;97539.56;5083717;28;992;-75
2021/04/05 00:14:41;;;;;;;;;;;;;;;21.64;29.13;97555.78;5082937;28;1902;-75
2021/04/05 00:17:06;;;;;;;;;;;;;;;21.68;28.97;97562.13;5083236;28;1081;-75
2021/04/05 00:19:32;;;;;;;;;;;;;;;22.20;27.96;97560.72;5083402;28;649;-74
2021/04/05 00:21:58;;;;;;;;;;;;;;;22.50;27.70;97559.22;5083404;28;693;-75
2021/04/05 00:24:23;;;;;;;;;;;;;;;22.58;27.51;97565.41;5083430;28;610;-75
2021/04/05 00:26:49;;;;;;;;;;;;;;;22.33;27.44;97555.81;5083389;28;856;-74
2021/04/05 00:29:14;;;;;;;;;;;;;;;21.95;27.98;97552.28;5083069;28;930;-74
2021/04/05 00:31:40;;;;;;;;;;;;;;;21.76;28.16;97552.13;5083784;28;1008;-75
2021/04/05 00:34:05;;;;;;;;;;;;;;;21.79;28.66;97562.53;5082915;28;1973;-75
2021/04/05 00:36:31;;;;;;;;;;;;;;;21.70;28.80;97558.81;5116454;28;677;-74
2021/04/05 00:38:56;;;;;;;;;;;;;;;21.69;28.75;97545.91;5083135;28;614;-75
2021/04/05 00:41:22;;;;;;;;;;;;;;;21.83;28.53;97551.09;5082776;28;931;-75
2021/04/05 00:43:47;;;;;;;;;;;;;;;21.67;28.81;97546.38;5082628;28;947;-75
2021/04/05 00:46:13;;;;;;;;;;;;;;;21.60;28.79;97540.94;5082819;28;995;-74
2021/04/05 00:48:38;;;;;;;;;;;;;;;22.09;28.28;97540.47;5082639;28;571;-74
2021/04/05 00:51:14;;;;;;;;;;;;;;;22.76;27.05;97534.34;5116164;28;606;-75
2021/04/05 00:53:40;;;;;;;;;;;;;;;22.41;27.18;97545.00;5082681;28;1953;-74
2021/04/05 00:56:06;;;;;;;;;;;;;;;21.99;27.83;97533.13;5082791;28;927;-74
2021/04/05 00:58:31;;;;;;;;;;;;;;;21.92;27.86;97539.06;5082370;28;986;-74
2021/04/05 01:01:00;;;;;;;;;;;;;;;21.79;28.58;97544.75;5082733;28;988;-74
2021/04/05 01:03:26;;;;;;;;;;;;;;;22.41;27.63;97544.19;5082493;28;760;-75
2021/04/05 01:05:54;;;;;;;;;;;;;;;21.32;28.95;97535.00;5082799;28;665;-74
2021/04/05 01:08:20;;;;;;;;;;;;;;;22.04;27.81;97538.22;5082067;28;641;-75
2021/04/05 01:10:46;;;;;;;;;;;;;;;21.84;28.21;97535.69;5115563;28;894;-75
2021/04/05 01:13:11;;;;;;;;;;;;;;;21.90;28.29;97544.38;5081970;28;938;-74
2021/04/05 01:15:37;;;;;;;;;;;;;;;22.05;28.15;97546.25;5082372;28;1910;-75
2021/04/05 01:18:03;;;;;;;;;;;;;;;22.01;28.11;97556.13;5082585;28;689;-75
2021/04/05 01:20:28;;;;;;;;;;;;;;;21.94;27.84;97553.56;5115542;28;1316;-74
2021/04/05 01:22:54;;;;;;;;;;;;;;;21.83;28.26;97591.53;5082045;28;638;-75
2021/04/05 01:25:19;;;;;;;;;;;;;;;21.85;28.11;97555.03;5082366;28;1058;-75
2021/04/05 01:27:45;;;;;;;;;;;;;;;21.22;29.35;97558.75;5082260;28;891;-75
2021/04/05 01:30:27;;;;;;;;;;;;;;;21.97;27.78;97549.81;5081922;28;981;-75
2021/04/05 01:33:06;;;;;;;;;;;;;;;21.85;28.23;97543.72;5081993;28;599;-75
2021/04/05 01:35:38;;;;;;;;;;;;;;;21.68;28.29;97542.28;5081759;28;1963;-74
2021/04/05 01:38:04;;;;;;;;;;;;;;;21.83;28.11;97532.06;5081767;28;641;-74
2021/04/05 01:40:32;;;;;;;;;;;;;;;21.88;28.02;97541.22;5114574;28;1246;-74
2021/04/05 01:42:57;;;;;;;;;;;;;;;21.89;27.82;97537.13;5114570;28;851;-74
2021/04/05 01:45:23;;;;;;;;;;;;;;;21.83;28.16;97529.22;5115273;28;939;-74
2021/04/05 01:47:48;;;;;;;;;;;;;;;21.66;28.16;97527.81;5081890;28;634;-74
2021/04/05 01:50:14;;;;;;;;;;;;;;;21.76;28.31;97523.81;5081754;28;682;-73
2021/04/05 01:52:40;;;;;;;;;;;;;;;21.84;27.83;97524.34;5081951;28;665;-73
2021/04/05 01:55:06;;;;;;;;;;;;;;;21.84;27.88;97525.13;5081110;28;1972;-74
2021/04/05 01:57:32;;;;;;;;;;;;;;;21.87;27.91;97519.81;5081504;28;930;-75
2021/04/05 01:59:57;;;;;;;;;;;;;;;21.76;28.00;97518.16;5114804;28;947;-74
2021/04/05 02:02:22;;;;;;;;;;;;;;;21.77;28.08;97516.91;5114859;28;617;-75
2021/04/05 02:04:48;;;;;;;;;;;;;;;22.01;27.65;97522.13;5081193;28;709;-75
2021/04/05 02:07:13;;;;;;;;;;;;;;;20.01;27.63;97223.44;5081445;28;678;-75
2021/04/05 02:09:39;;;;;;;;;;;;;;;22.09;27.33;97517.81;5114289;28;979;-74
2021/04/05 02:12:05;;;;;;;;;;;;;;;21.81;27.77;97519.59;5081121;28;830;-75
2021/04/05 02:14:30;;;;;;;;;;;;;;;21.64;27.97;97515.34;5080985;28;1897;-75
2021/04/05 02:16:56;;;;;;;;;;;;;;;21.72;27.92;97517.47;5081508;28;665;-75
2021/04/05 02:19:21;;;;;;;;;;;;;;;21.88;27.89;97512.91;5080387;28;642;-75
2021/04/05 02:21:50;;;;;;;;;;;;;;;21.77;27.71;97514.06;5081252;28;598;-75
2021/04/05 02:24:15;;;;;;;;;;;;;;;21.69;27.97;97512.72;5113790;28;1084;-75
2021/04/05 02:26:41;;;;;;;;;;;;;;;21.68;27.89;97513.97;5080960;28;937;-75
2021/04/05 02:29:08;;;;;;;;;;;;;;;22.21;27.25;97508.47;5114016;28;846;-74
2021/04/05 02:31:34;;;;;;;;;;;;;;;22.38;27.04;97513.94;5081198;28;641;-74
2021/04/05 02:33:59;;;;;;;;;;;;;;;22.52;26.88;97517.03;5080541;28;1898;-75
2021/04/05 02:36:25;;;;;;;;;;;;;;;22.23;27.03;97517.31;5113756;28;666;-75
2021/04/05 02:39:01;;;;;;;;;;;;;;;21.77;27.45;97514.06;5080253;28;856;-75
2021/04/05 02:41:27;;;;;;;;;;;;;;;21.74;27.79;97506.47;5080534;28;841;-74
2021/04/05 02:43:53;;;;;;;;;;;;;;;21.81;27.72;97509.06;5080829;28;1025;-75
2021/04/05 02:46:19;;;;;;;;;;;;;;;21.84;27.44;97518.69;5080551;28;667;-75
2021/04/05 02:48:46;;;;;;;;;;;;;;;21.77;27.84;97514.06;5080373;28;664;-74
2021/04/05 02:51:11;;;;;;;;;;;;;;;21.86;27.53;97513.34;5114029;28;820;-75
2021/04/05 02:53:37;;;;;;;;;;;;;;;21.53;27.99;97510.06;5113030;28;1910;-74
2021/04/05 02:56:03;;;;;;;;;;;;;;;21.73;28.18;97519.06;5080591;28;871;-75
2021/04/05 02:58:29;;;;;;;;;;;;;;;22.77;26.29;97516.06;5080468;28;1083;-75
2021/04/05 03:00:54;;;;;;;;;;;;;;;22.83;25.83;97519.09;5080440;28;630;-75
2021/04/05 03:03:20;;;;;;;;;;;;;;;22.39;26.67;97524.03;5113192;28;705;-75
2021/04/05 03:05:45;;;;;;;;;;;;;;;22.17;26.86;97524.00;5113824;28;712;-75
2021/04/05 03:08:11;;;;;;;;;;;;;;;21.93;27.28;97524.44;5079885;28;907;-74
2021/04/05 03:10:37;;;;;;;;;;;;;;;21.95;27.29;97535.31;5112612;28;918;-75
2021/04/05 03:13:02;;;;;;;;;;;;;;;22.06;27.21;97547.03;5079441;28;1142;-74
2021/04/05 03:15:27;;;;;;;;;;;;;;;21.95;27.25;97557.97;5080345;28;1973;-74
2021/04/05 03:17:55;;;;;;;;;;;;;;;21.76;27.59;97549.31;5113347;28;972;-74
2021/04/05 03:20:20;;;;;;;;;;;;;;;21.73;27.65;97547.38;5079978;28;686;-74
2021/04/05 03:22:46;;;;;;;;;;;;;;;21.82;27.37;97549.50;5080210;28;911;-75
2021/04/05 03:25:16;;;;;;;;;;;;;;;21.70;27.42;97551.09;5080145;28;926;-76
2021/04/05 03:27:41;;;;;;;;;;;;;;;21.99;27.30;97547.31;5080449;28;880;-76
2021/04/05 03:30:07;;;;;;;;;;;;;;;22.22;26.74;97561.06;5080201;28;672;-76
2021/04/05 03:32:51;;;;;;;;;;;;;;;21.98;27.15;97562.72;5113487;28;729;-75
2021/04/05 03:35:17;;;;;;;;;;;;;;;21.68;27.64;97562.13;5112852;28;1901;-76
2021/04/05 03:37:43;;;;;;;;;;;;;;;21.89;27.40;97566.25;5113081;28;1080;-75
2021/04/05 03:40:08;;;;;;;;;;;;;;;21.79;27.63;97568.19;5112955;28;882;-75
2021/04/05 03:42:57;;;;;;;;;;;;;;;21.82;27.62;97567.28;5113199;28;997;-75
2021/04/05 03:45:24;;;;;;;;;;;;;;;21.77;27.53;97570.72;5088804;28;1020;-76
2021/04/05 03:47:55;;;;;;;;;;;;;;;21.82;27.39;97572.97;5080021;28;749;-75
2021/04/05 03:50:22;;;;;;;;;;;;;;;21.84;27.44;97576.13;5079918;28;650;-75
2021/04/05 03:52:53;;;;;;;;;;;;;;;21.75;27.70;97573.19;5079785;28;947;-75
2021/04/05 03:55:19;;;;;;;;;;;;;;;21.76;27.52;97573.97;5111754;28;1906;-76
2021/04/05 03:57:45;;;;;;;;;;;;;;;21.82;27.51;97578.63;5079804;28;1434;-77
2021/04/05 04:00:11;;;;;;;;;;;;;;;21.66;27.75;97573.13;5080127;28;598;-76
2021/04/05 04:02:47;;;;;;;;;;;;;;;21.59;27.75;97568.47;5080440;28;690;-76
2021/04/05 04:07:49;;;;;;;;;;;;;;;21.67;27.54;97566.19;5079808;28;1319;-77
2021/04/05 04:10:28;;;;;;;;;;;;;;;21.80;27.44;97575.44;5079706;28;1227;-77
2021/04/05 04:12:54;;;;;;;;;;;;;;;22.01;27.15;97575.94;5080114;28;734;-76
2021/04/05 04:15:20;;;;;;;;;;;;;;;22.54;26.17;97578.97;5080539;28;1955;-77
2021/04/05 04:17:45;;;;;;;;;;;;;;;22.65;25.95;97582.19;5080289;28;602;-76
2021/04/05 04:20:14;;;;;;;;;;;;;;;22.26;26.61;97578.72;5062868;28;1375;-77
2021/04/05 04:22:40;;;;;;;;;;;;;;;22.16;26.40;97573.44;5079863;28;966;-76
2021/04/05 04:25:06;;;;;;;;;;;;;;;21.94;26.94;97570.53;5080108;28;862;-77
2021/04/05 04:27:31;;;;;;;;;;;;;;;21.98;27.06;97574.06;5080141;28;1096;-77
2021/04/05 04:29:57;;;;;;;;;;;;;;;21.85;27.49;97572.03;5079416;28;1350;-77
2021/04/05 04:32:22;;;;;;;;;;;;;;;21.81;27.59;97577.06;5080477;28;685;-77
2021/04/05 04:34:48;;;;;;;;;;;;;;;21.92;27.50;97581.56;5079829;28;1902;-77
2021/04/05 04:37:13;;;;;;;;;;;;;;;21.87;27.22;97577.25;5079672;28;1354;-76
2021/04/05 04:39:39;;;;;;;;;;;;;;;21.74;27.63;97571.59;5079170;28;1378;-77
2021/04/05 04:42:04;;;;;;;;;;;;;;;21.70;27.58;97576.59;5081936;28;989;-77
2021/04/05 04:44:30;;;;;;;;;;;;;;;21.89;27.41;97576.78;5082865;28;662;-77
2021/04/05 04:46:55;;;;;;;;;;;;;;;21.47;27.92;97582.66;5083580;28;648;-76
2021/04/05 04:49:21;;;;;;;;;;;;;;;21.20;28.65;97586.69;5082776;28;1381;-77
2021/04/05 04:51:46;;;;;;;;;;;;;;;22.48;26.39;97580.78;5083009;28;1202;-76
2021/04/05 04:54:12;;;;;;;;;;;;;;;22.62;26.13;97594.44;5082539;28;1902;-77
2021/04/05 04:56:37;;;;;;;;;;;;;;;22.77;25.91;97589.03;5083356;28;1000;-77
2021/04/05 04:59:07;;;;;;;;;;;;;;;22.67;25.75;97593.84;5082614;28;1367;-77
2021/04/05 05:01:33;;;;;;;;;;;;;;;22.43;26.18;97592.72;5116539;28;645;-76
2021/04/05 05:04:04;;;;;;;;;;;;;;;22.05;26.73;97600.09;5109468;28;1368;-77
2021/04/05 05:06:29;;;;;;;;;;;;;;;21.94;27.05;97593.22;5098903;28;1172;-77
2021/04/05 05:08:55;;;;;;;;;;;;;;;21.96;27.26;97594.31;5095489;28;906;-77
2021/04/05 05:11:20;;;;;;;;;;;;;;;22.01;27.19;97595.78;5096243;28;969;-76
2021/04/05 05:13:45;;;;;;;;;;;;;;;22.02;27.17;97591.69;5070137;28;1967;-76
2021/04/05 05:16:11;;;;;;;;;;;;;;;21.88;27.23;97604.31;5104657;28;1352;-77
2021/04/05 05:18:36;;;;;;;;;;;;;;;21.89;27.45;97607.94;5100624;28;1342;-77
2021/04/05 05:21:02;;;;;;;;;;;;;;;21.78;27.69;97605.47;5081954;28;966;-76
2021/04/05 05:23:28;;;;;;;;;;;;;;;21.77;27.64;97613.19;5081953;28;1425;-77
2021/04/05 05:25:53;;;;;;;;;;;;;;;21.80;27.72;97609.44;5083262;28;958;-76
2021/04/05 05:28:19;;;;;;;;;;;;;;;21.78;27.80;97611.94;5089256;28;905;-76
2021/04/05 05:30:45;;;;;;;;;;;;;;;21.59;27.77;97613.75;5095699;28;629;-76
2021/04/05 05:33:10;;;;;;;;;;;;;;;21.71;27.82;97614.19;5120176;27;1262;-77
2021/04/05 05:35:36;;;;;;;;;;;;;;;21.83;27.56;97605.69;5084303;28;1935;-76
2021/04/05 05:38:04;;;;;;;;;;;;;;;21.79;27.46;97598.56;5082002;28;932;-76
2021/04/05 05:40:30;;;;;;;;;;;;;;;21.85;27.56;97594.69;5082622;28;1370;-77
2021/04/05 05:42:56;;;;;;;;;;;;;;;21.78;27.81;97596.97;5082304;28;1346;-76
2021/04/05 05:45:25;;;;;;;;;;;;;;;21.84;27.65;97601.59;5081308;28;1335;-76
2021/04/05 05:48:08;;;;;;;;;;;;;;;21.67;27.67;97608.66;5082049;28;1358;-77
2021/04/05 05:50:41;;;;;;;;;;;;;;;21.74;27.63;97602.75;5081935;28;1163;-76
2021/04/05 05:53:07;;;;;;;;;;;;;;;21.76;27.50;97591.78;5081791;28;1394;-76
2021/04/05 05:55:41;;;;;;;;;;;;;;;21.71;27.73;97606.53;5082409;28;1897;-76
2021/04/05 05:58:12;;;;;;;;;;;;;;;21.80;27.82;97597.31;5080109;28;1414;-76
2021/04/05 06:00:46;;;;;;;;;;;;;;;21.71;27.83;97611.38;5078962;28;1559;-76
2021/04/05 06:03:17;;;;;;;;;;;;;;;21.67;27.66;97611.50;5098487;28;717;-76
2021/04/05 06:05:53;;;;;;;;;;;;;;;21.63;27.92;97610.81;5076306;28;1489;-76
2021/04/05 06:08:37;;;;;;;;;;;;;;;21.63;28.13;97622.16;5080755;28;930;-76
2021/04/05 06:11:29;;;;;;;;;;;;;;;21.57;28.15;97621.13;5081158;28;1670;-77
2021/04/05 06:14:08;;;;;;;;;;;;;;;21.68;27.72;97618.75;5082439;28;1906;-77
2021/04/05 06:16:34;;;;;;;;;;;;;;;22.06;27.51;97617.88;5115107;28;701;-76
2021/04/05 06:18:59;;;;;;;;;;;;;;;22.69;26.35;97622.56;5081786;28;598;-76
2021/04/05 06:21:42;;;;;;;;;;;;;;;22.74;26.10;97618.31;5081559;28;1331;-76
2021/04/05 06:24:09;;;;;;;;;;;;;;;22.22;26.82;97629.06;5061061;28;934;-76
2021/04/05 06:26:53;;;;;;;;;;;;;;;21.91;27.56;97625.25;5073822;28;1375;-76
2021/04/05 06:29:22;;;;;;;;;;;;;;;21.78;27.59;97628.94;5081398;28;594;-77
2021/04/05 06:31:50;;;;;;;;;;;;;;;21.76;27.60;97639.94;5081331;28;1339;-77
2021/04/05 06:34:16;;;;;;;;;;;;;;;21.91;27.45;97643.06;5080439;28;1910;-77
2021/04/05 06:36:47;;;;;;;;;;;;;;;21.84;27.70;97646.94;5081446;28;959;-76
2021/04/05 06:39:20;;;;;;;;;;;;;;;21.98;27.44;97642.03;5080845;28;819;-76
2021/04/05 06:41:45;;;;;;;;;;;;;;;21.95;27.56;97651.44;5081321;28;610;-77
2021/04/05 06:44:29;;;;;;;;;;;;;;;21.81;27.59;97644.19;5080694;28;1466;-77
2021/04/05 06:47:01;;;;;;;;;;;;;;;21.53;28.18;97658.03;5081651;28;670;-77
2021/04/05 06:49:45;;;;;;;;;;;;;;;21.53;27.96;97663.69;5081310;28;669;-77
2021/04/05 06:52:16;;;;;;;;;;;;;;;22.27;27.02;97671.00;5081089;28;932;-76
2021/04/05 06:55:01;;;;;;;;;;;;;;;22.43;26.83;97666.41;5111862;28;1984;-76
2021/04/05 06:57:35;;;;;;;;;;;;;;;22.38;26.78;97675.50;5081557;28;563;-77
2021/04/05 07:00:01;;;;;;;;;;;;;;;22.15;27.02;97669.00;5113939;28;642;-77
2021/04/05 07:02:38;;;;;;;;;;;;;;;21.85;27.69;97676.81;5081149;28;681;-76
2021/04/05 07:05:04;;;;;;;;;;;;;;;21.84;27.77;97675.25;5080317;28;1393;-76
2021/04/05 07:07:45;;;;;;;;;;;;;;;21.94;27.67;97686.69;5080870;28;871;-74
2021/04/05 07:10:16;;;;;;;;;;;;;;;22.00;27.82;97685.66;5112977;28;971;-77
2021/04/05 07:13:05;;;;;;;;;;;;;;;22.00;27.73;97679.97;5114037;28;836;-76
2021/04/05 07:15:34;;;;;;;;;;;;;;;21.96;27.90;97696.31;5080413;28;1910;-76
2021/04/05 07:18:06;;;;;;;;;;;;;;;22.03;27.74;97689.63;5080046;28;658;-76
2021/04/05 07:20:35;;;;;;;;;;;;;;;22.10;27.56;97695.03;5080077;28;900;-76
2021/04/05 07:23:14;;;;;;;;;;;;;;;22.00;27.83;97701.84;5079515;28;1160;-76
2021/04/05 07:25:44;;;;;;;;;;;;;;;21.88;27.77;97699.84;5113857;28;702;-76
2021/04/05 07:28:24;;;;;;;;;;;;;;;21.97;27.73;97697.13;5106680;28;1267;-76
2021/04/05 07:30:52;;;;;;;;;;;;;;;21.82;27.85;97694.75;5081272;28;657;-76
2021/04/05 07:33:24;;;;;;;;;;;;;;;21.75;28.13;97697.78;5079818;28;756;-76
2021/04/05 07:36:08;;;;;;;;;;;;;;;21.76;28.22;97701.41;5080579;28;1906;-76
2021/04/05 07:38:44;;;;;;;;;;;;;;;21.72;28.28;97704.38;5080007;28;877;-76
2021/04/05 07:41:10;;;;;;;;;;;;;;;21.62;28.36;97714.00;5080893;28;1477;-76
2021/04/05 07:43:54;;;;;;;;;;;;;;;21.75;28.13;97711.94;5079173;28;685;-76
2021/04/05 07:46:24;;;;;;;;;;;;;;;21.61;28.45;97712.41;5080345;28;802;-76
2021/04/05 07:49:08;;;;;;;;;;;;;;;21.69;28.35;97713.75;5113121;28;681;-76
2021/04/05 07:51:44;;;;;;;;;;;;;;;21.95;27.98;97708.09;5080107;28;935;-75
2021/04/05 07:54:09;;;;;;;;;;;;;;;22.35;27.26;97714.06;5078980;28;1902;-76
2021/04/05 07:56:50;;;;;;;;;;;;;;;22.54;27.00;97715.06;5079836;28;1347;-76
2021/04/05 07:59:22;;;;;;;;;;;;;;;22.11;27.35;97716.50;5113323;28;606;-76
2021/04/05 08:01:54;;;;;;;;;;;;;;;21.91;27.31;97721.56;5080480;28;689;-76
2021/04/05 08:04:21;;;;;;;;;;;;;;;21.80;27.79;97722.72;5111687;28;1195;-76
2021/04/05 08:06:57;;;;;;;;;;;;;;;21.73;27.91;97717.28;5113549;28;1025;-76
2021/04/05 08:09:46;;;;;;;;;;;;;;;21.68;28.08;97729.19;5079534;28;868;-76
2021/04/05 08:12:50;;;;;;;;;;;;;;;21.74;28.01;97724.53;5082854;28;1431;-76
2021/04/05 08:15:15;;;;;;;;;;;;;;;21.74;28.08;97730.19;5078766;28;1968;-76
2021/04/05 08:17:54;;;;;;;;;;;;;;;21.47;28.75;97733.47;5081617;28;665;-76
2021/04/05 08:20:28;;;;;;;;;;;;;;;21.70;28.30;97735.16;5074238;28;1012;-76
2021/04/05 08:23:03;;;;;;;;;;;;;;;21.61;28.13;97743.56;5083829;28;1030;-76
2021/04/05 08:25:44;;;;;;;;;;;;;;;22.20;27.39;97735.66;5115437;28;1507;-76
2021/04/05 08:28:29;;;;;;;;;;;;;;;22.54;27.00;97726.41;5083735;28;701;-76
2021/04/05 08:31:14;;;;;;;;;;;;;;;22.35;26.78;97734.72;5084324;28;705;-76
2021/04/05 08:33:57;;;;;;;;;;;;;;;21.97;27.46;97729.06;5092380;28;1291;-76
2021/04/05 08:36:42;;;;;;;;;;;;;;;21.94;27.46;97727.13;5083632;28;1254;-76
2021/04/05 08:39:12;;;;;;;;;;;;;;;21.71;28.13;97731.13;5092792;28;1056;-76
2021/04/05 08:41:38;;;;;;;;;;;;;;;21.73;28.01;97728.59;5083788;28;804;-76
2021/04/05 08:44:25;;;;;;;;;;;;;;;21.65;28.19;97727.22;5083193;28;673;-76
2021/04/05 08:46:50;;;;;;;;;;;;;;;21.87;27.89;97726.59;5083837;28;1322;-76
2021/04/05 08:49:16;;;;;;;;;;;;;;;22.41;27.02;97725.63;5116777;28;649;-76
2021/04/05 08:51:42;;;;;;;;;;;;;;;22.65;26.52;97729.66;5116755;28;669;-76
2021/04/05 08:54:08;;;;;;;;;;;;;;;22.38;26.64;97732.19;5115531;28;1984;-76
2021/04/05 08:56:43;;;;;;;;;;;;;;;22.05;27.58;97727.56;5083154;28;1339;-76
2021/04/05 08:59:10;;;;;;;;;;;;;;;21.91;27.79;97728.03;5083081;28;988;-76
2021/04/05 09:02:11;;;;;;;;;;;;;;;21.82;27.83;97720.25;5083570;28;662;-76
2021/04/05 09:04:37;;;;;;;;;;;;;;;21.58;28.20;97730.31;5101962;28;1131;-76
2021/04/05 09:07:11;;;;;;;;;;;;;;;21.78;27.86;97721.59;5082054;28;1343;-76
2021/04/05 09:09:37;;;;;;;;;;;;;;;21.67;28.17;97730.44;5082288;28;827;-76
2021/04/05 09:12:04;;;;;;;;;;;;;;;21.65;28.29;97721.56;5083077;28;834;-76
2021/04/05 09:14:30;;;;;;;;;;;;;;;21.71;27.89;97716.94;5081861;28;1986;-76
2021/04/05 09:16:59;;;;;;;;;;;;;;;21.69;28.24;97716.59;5105903;28;1432;-76
2021/04/05 09:19:48;;;;;;;;;;;;;;;21.62;28.24;97711.16;5082739;28;1426;-76
2021/04/05 09:22:21;;;;;;;;;;;;;;;21.59;28.04;97720.56;5085918;28;1434;-76
2021/04/05 09:24:50;;;;;;;;;;;;;;;21.65;28.31;97704.59;5115507;28;953;-76
2021/04/05 09:27:15;;;;;;;;;;;;;;;22.22;27.48;97719.75;5082130;28;1291;-76
2021/04/05 09:30:00;;;;;;;;;;;;;;;22.38;26.96;97720.84;5082804;28;906;-76
2021/04/05 09:32:28;;;;;;;;;;;;;;;22.49;26.80;97722.09;5082922;28;636;-76
2021/04/05 09:35:12;;;;;;;;;;;;;;;21.99;26.97;97728.59;5082420;28;1898;-76
2021/04/05 09:37:57;;;;;;;;;;;;;;;22.06;27.01;97725.53;5082457;28;1339;-76
2021/04/05 09:40:34;;;;;;;;;;;;;;;21.89;27.42;97736.19;5082289;28;873;-76
2021/04/05 09:43:19;;;;;;;;;;;;;;;21.87;27.79;97737.91;5081938;28;856;-76
2021/04/05 09:45:45;;;;;;;;;;;;;;;21.85;27.82;97730.63;5082972;28;1343;-76
2021/04/05 09:48:29;;;;;;;;;;;;;;;21.90;27.51;97729.28;5081993;28;1358;-76
2021/04/05 09:50:55;;;;;;;;;;;;;;;21.82;27.78;97730.78;5082761;28;1346;-76
2021/04/05 09:53:23;;;;;;;;;;;;;;;21.84;27.67;97734.72;5081830;28;670;-76
2021/04/05 09:55:59;;;;;;;;;;;;;;;21.73;27.86;97734.28;5082339;28;1910;-76
2021/04/05 09:58:29;;;;;;;;;;;;;;;21.87;27.79;97732.25;5081301;28;895;-76
2021/04/05 10:00:58;;;;;;;;;;;;;;;22.32;26.97;97735.59;5082599;28;1311;-76
2021/04/05 10:03:23;;;;;;;;;;;;;;;22.63;26.60;97732.13;5081380;28;1481;-76
2021/04/05 10:05:49;;;;;;;;;;;;;;;22.20;26.89;97733.59;5082485;28;732;-76
2021/04/05 10:08:15;;;;;;;;;;;;;;;22.05;26.86;97726.78;5081215;28;644;-76
2021/04/05 10:10:40;;;;;;;;;;;;;;;21.87;27.23;97732.25;5082032;28;1033;-76
2021/04/05 10:13:06;;;;;;;;;;;;;;;21.77;27.78;97728.50;5080988;28;1426;-76
2021/04/05 10:15:31;;;;;;;;;;;;;;;21.79;27.66;97731.66;5081269;28;1985;-76
2021/04/05 10:17:59;;;;;;;;;;;;;;;21.68;27.79;97732.00;5081204;28;693;-76
2021/04/05 10:20:25;;;;;;;;;;;;;;;21.91;27.38;97727.25;5081981;28;654;-76
2021/04/05 10:22:51;;;;;;;;;;;;;;;21.73;27.74;97728.59;5081521;28;1362;-76
2021/04/05 10:25:18;;;;;;;;;;;;;;;21.74;27.80;97713.19;5080447;28;911;-76
2021/04/05 10:27:44;;;;;;;;;;;;;;;22.22;27.10;97725.41;5080965;28;902;-76
2021/04/05 10:30:10;;;;;;;;;;;;;;;22.50;26.40;97728.56;5080787;28;855;-76
2021/04/05 10:32:35;;;;;;;;;;;;;;;22.52;26.47;97728.88;5080754;28;1386;-76
2021/04/05 10:35:01;;;;;;;;;;;;;;;22.26;26.72;97726.09;5080419;28;1973;-76
2021/04/05 10:37:33;;;;;;;;;;;;;;;21.97;27.08;97722.63;5081366;28;650;-76
2021/04/05 10:39:59;;;;;;;;;;;;;;;21.91;27.25;97722.38;5080321;28;882;-76
2021/04/05 10:42:25;;;;;;;;;;;;;;;21.77;27.56;97722.84;5081184;28;1402;-76
2021/04/05 10:45:11;;;;;;;;;;;;;;;21.78;27.53;97719.56;5081680;28;947;-76
2021/04/05 10:48:00;;;;;;;;;;;;;;;21.83;27.64;97727.47;5084602;28;962;-76
2021/04/05 10:50:26;;;;;;;;;;;;;;;21.64;27.62;97717.16;5083541;28;1126;-76
2021/04/05 10:52:52;;;;;;;;;;;;;;;21.79;27.77;97715.47;5080743;28;1347;-76
2021/04/05 10:55:21;;;;;;;;;;;;;;;21.79;27.63;97718.28;5079961;28;1890;-76
2021/04/05 10:57:51;;;;;;;;;;;;;;;22.00;27.39;97724.53;5080050;28;939;-76
2021/04/05 11:00:17;;;;;;;;;;;;;;;22.42;26.58;97718.69;5080366;28;876;-76
2021/04/05 11:02:44;;;;;;;;;;;;;;;22.41;26.47;97719.97;5080338;28;1370;-75
2021/04/05 11:05:10;;;;;;;;;;;;;;;21.93;27.14;97713.44;5080537;28;776;-76
2021/04/05 11:07:35;;;;;;;;;;;;;;;21.88;27.36;97716.84;5081321;28;628;-76
2021/04/05 11:10:03;;;;;;;;;;;;;;;21.76;27.23;97716.38;5079749;28;982;-76
2021/04/05 11:12:38;;;;;;;;;;;;;;;21.87;27.64;97709.59;5080236;28;940;-76
2021/04/05 11:15:04;;;;;;;;;;;;;;;21.83;27.43;97710.50;5080348;28;1913;-76
2021/04/05 11:17:30;;;;;;;;;;;;;;;21.84;27.70;97714.09;5081508;28;701;-76
2021/04/05 11:19:55;;;;;;;;;;;;;;;21.72;27.99;97717.75;5080488;28;1130;-76
2021/04/05 11:22:24;;;;;;;;;;;;;;;21.69;27.77;97722.25;5080479;28;741;-75
2021/04/05 11:24:53;;;;;;;;;;;;;;;21.87;27.73;97718.09;5079887;28;1417;-76
2021/04/05 11:27:20;;;;;;;;;;;;;;;21.85;27.53;97719.31;5080977;28;857;-76
2021/04/05 11:29:46;;;;;;;;;;;;;;;21.71;28.08;97714.13;5080429;28;973;-76
2021/04/05 11:32:13;;;;;;;;;;;;;;;21.65;27.71;97703.78;5081102;28;603;-76
2021/04/05 11:34:40;;;;;;;;;;;;;;;21.73;27.75;97708.78;5111515;28;1883;-76
2021/04/05 11:37:10;;;;;;;;;;;;;;;21.74;27.71;97713.19;5114082;28;609;-76
2021/04/05 11:39:35;;;;;;;;;;;;;;;21.67;28.18;97702.09;5080078;28;844;-76
2021/04/05 11:42:01;;;;;;;;;;;;;;;22.07;27.54;97699.59;5080757;28;908;-76
2021/04/05 11:44:30;;;;;;;;;;;;;;;22.45;26.80;97709.28;5080439;28;1414;-76
2021/04/05 11:46:56;;;;;;;;;;;;;;;22.66;26.56;97697.19;5080994;28;1462;-76
2021/04/05 11:49:21;;;;;;;;;;;;;;;22.24;26.81;97697.44;5080599;28;705;-76
2021/04/05 11:51:47;;;;;;;;;;;;;;;21.92;27.31;97689.97;5083718;28;634;-76
2021/04/05 11:54:16;;;;;;;;;;;;;;;21.94;27.47;97692.34;5084090;28;1906;-76
2021/04/05 11:56:43;;;;;;;;;;;;;;;21.68;27.73;97692.38;5084625;28;1326;-76
2021/04/05 11:59:09;;;;;;;;;;;;;;;21.77;27.87;97686.81;5117305;28;1294;-76
2021/04/05 12:01:43;;;;;;;;;;;;;;;21.66;27.91;97694.88;5084813;28;637;-76
2021/04/05 12:04:13;;;;;;;;;;;;;;;21.71;27.86;97710.47;5084136;28;1397;-76
2021/04/05 12:06:39;;;;;;;;;;;;;;;22.19;27.28;97714.22;5085317;28;657;-76
2021/04/05 12:09:34;;;;;;;;;;;;;;;22.51;26.47;97711.09;5083518;28;1008;-76
2021/04/05 12:12:03;;;;;;;;;;;;;;;22.40;26.43;97715.53;5079344;28;1130;-76
2021/04/05 12:14:28;;;;;;;;;;;;;;;22.05;27.16;97718.28;5083221;28;1909;-76
2021/04/05 12:16:54;;;;;;;;;;;;;;;21.88;27.39;97711.97;5084295;28;1354;-76
2021/04/05 12:19:20;;;;;;;;;;;;;;;21.72;27.68;97710.03;5084073;28;618;-76
2021/04/05 12:21:47;;;;;;;;;;;;;;;21.81;27.49;97696.00;5084514;28;690;-77
2021/04/05 12:24:13;;;;;;;;;;;;;;;21.65;27.61;97695.31;5116974;28;835;-76
2021/04/05 12:26:39;;;;;;;;;;;;;;;21.67;27.93;97702.09;5115912;28;1539;-76
2021/04/05 12:29:05;;;;;;;;;;;;;;;21.74;27.82;97690.53;5083681;28;947;-76
2021/04/05 12:31:30;;;;;;;;;;;;;;;21.63;27.99;97695.75;5117823;28;674;-76
2021/04/05 12:33:58;;;;;;;;;;;;;;;21.66;27.67;97680.72;5083436;28;1902;-76
2021/04/05 12:36:33;;;;;;;;;;;;;;;21.91;27.45;97681.91;5083570;28;1397;-77
2021/04/05 12:38:59;;;;;;;;;;;;;;;22.02;27.22;97688.03;5116375;28;990;-76
2021/04/05 12:41:24;;;;;;;;;;;;;;;22.35;26.65;97686.53;5117145;28;874;-76
2021/04/05 12:43:50;;;;;;;;;;;;;;;22.48;26.87;97685.69;5116596;28;952;-76
2021/04/05 12:46:16;;;;;;;;;;;;;;;22.15;26.91;97686.00;5115237;28;1361;-76
2021/04/05 12:48:41;;;;;;;;;;;;;;;21.82;27.24;97677.75;5082929;28;1330;-76
2021/04/05 12:51:07;;;;;;;;;;;;;;;21.80;27.58;97668.91;5117204;28;662;-76
2021/04/05 12:53:33;;;;;;;;;;;;;;;21.79;27.49;97670.16;5082658;28;937;-76
2021/04/05 12:55:58;;;;;;;;;;;;;;;21.76;27.65;97665.41;5116835;28;1993;-76
2021/04/05 12:58:25;;;;;;;;;;;;;;;21.73;27.78;97660.66;5082364;28;1350;-76
2021/04/05 13:00:51;;;;;;;;;;;;;;;21.61;28.16;97667.13;5084111;28;749;-76
2021/04/05 13:03:20;;;;;;;;;;;;;;;21.63;27.91;97666.66;5082232;28;674;-76
2021/04/05 13:05:45;;;;;;;;;;;;;;;21.62;28.15;97654.53;5083479;28;693;-76
2021/04/05 13:08:13;;;;;;;;;;;;;;;21.90;27.78;97652.00;5082362;28;1390;-76
2021/04/05 13:10:41;;;;;;;;;;;;;;;22.38;26.99;97664.94;5116197;28;989;-76
2021/04/05 13:13:08;;;;;;;;;;;;;;;22.72;26.21;97667.00;5115556;28;855;-76
2021/04/05 13:15:33;;;;;;;;;;;;;;;22.15;27.17;97663.34;5116296;28;1967;-76